Spa/La Sauveniere, Belgium
Current Conditions -  °F | °C
As of 12:25 AM on Tuesday 23 Dec 2014 (Local Time) from EBLB Reporting Station
Broken Clouds Broken Clouds  
Wind Chill: 38°   Ceiling: 1100
Heat Index: 45°   Visibility: 6mi
Dew Point: 45°   Wind: 15mph
Humidity: 100%   Direction: 250°WSW
Pressure: 30.15"   Gusts: 28mph
Location:  50.49°N, 5.89°E
Report Text: EBLB 222325Z AUTO 25013G24KT 9999 FEW005/// SCT009/// BKN011/// 07/07 Q1021 GRN
Loading
Personal Weather Stations






























Interactive Weather Map New forecast layout! Learn more

10-Day Weather Forecast

Advertisements
Track Severe Weather on mobile